| time (UTC) | temp F | wind direction | speed knots | gust knots | rain 1hr in | rain 24hr in | rain mn in | humidity % | barometer mb |
| 20260506024016 | 70 | 0.0 | 0.0 | 0.00 | 0.00 | 0.00 | 77 | 1006.6 | |
| 20260506023016 | 70 | 0.0 | 4.3 | 0.00 | 0.00 | 0.00 | 77 | 1006.1 | |
| 20260506022017 | 71 | 23 | 0.9 | 7.8 | 0.00 | 0.00 | 0.00 | 77 | 1005.9 |
| 20260506021016 | 72 | 0.0 | 0.0 | 0.00 | 0.00 | 0.00 | 76 | 1005.7 | |
| 20260506020016 | 73 | 0.0 | 2.6 | 0.00 | 0.00 | 0.00 | 74 | 1005.2 | |
| 20260506015016 | 73 | 23 | 0.9 | 6.1 | 0.00 | 0.00 | 0.00 | 74 | 1005.4 |
| 20260506014016 | 73 | 0.0 | 4.3 | 0.00 | 0.00 | 0.00 | 73 | 1005.2 | |
| 20260506013016 | 73 | 0.0 | 2.6 | 0.00 | 0.00 | 0.00 | 72 | 1005.2 | |
| 20260506012017 | 74 | 0.0 | 4.3 | 0.00 | 0.00 | 0.00 | 72 | 1005.1 | |
| 20260506011016 | 74 | 23 | 0.9 | 4.3 | 0.00 | 0.00 | 0.00 | 73 | 1005.0 |
| 20260506010016 | 74 | 0.0 | 0.9 | 0.00 | 0.00 | 0.00 | 72 | 1004.7 | |
| 20260506005016 | 75 | 0.0 | 2.6 | 0.00 | 0.00 | 0.00 | 71 | 1004.2 | |
| 20260506004016 | 75 | 23 | 0.9 | 4.3 | 0.00 | 0.00 | 0.00 | 71 | 1004.5 |
| 20260506003016 | 76 | 0.0 | 0.0 | 0.00 | 0.00 | 0.00 | 71 | 1004.4 | |
| 20260506002016 | 77 | 0.0 | 5.2 | 0.00 | 0.00 | 0.00 | 70 | 1004.4 | |
| 20260506001017 | 78 | 0.0 | 5.2 | 0.00 | 0.00 | 0.00 | 68 | 1004.6 | |
| 20260506000016 | 79 | 0 | 0.9 | 7.0 | 0.00 | 0.00 | 0.00 | 68 | 1003.9 |
| 20260505235016 | 80 | 0.0 | 1.7 | 0.00 | 0.00 | 0.00 | 66 | 1003.6 | |
| 20260505234016 | 82 | 0 | 0.9 | 7.8 | 0.00 | 0.00 | 0.00 | 64 | 1003.7 |
| 20260505233016 | 84 | 23 | 0.9 | 7.0 | 0.00 | 0.00 | 0.00 | 62 | 1003.8 |
| 20260505232016 | 86 | 0 | 0.9 | 6.1 | 0.00 | 0.00 | 0.00 | 57 | 1003.4 |
| 20260505231016 | 87 | 23 | 0.9 | 6.1 | 0.00 | 0.00 | 0.00 | 54 | 1003.3 |
| 20260505230016 | 88 | 0.0 | 1.7 | 0.00 | 0.00 | 0.00 | 54 | 1003.0 | |
| 20260505225016 | 90 | 248 | 0.9 | 7.8 | 0.00 | 0.00 | 0.00 | 56 | 1003.0 |
| 20260505224016 | 89 | 203 | 0.9 | 5.2 | 0.00 | 0.00 | 0.00 | 57 | 1002.9 |
| 20260505223016 | 89 | 0.0 | 0.0 | 0.00 | 0.00 | 0.00 | 57 | 1002.8 | |
| 20260505222016 | 89 | 248 | 1.7 | 7.0 | 0.00 | 0.00 | 0.00 | 57 | 1002.6 |
| 20260505221016 | 89 | 0.0 | 3.5 | 0.00 | 0.00 | 0.00 | 58 | 1002.6 | |
| 20260505220016 | 90 | 248 | 0.9 | 6.1 | 0.00 | 0.00 | 0.00 | 58 | 1002.8 |
| 20260505215016 | 89 | 248 | 0.9 | 6.1 | 0.00 | 0.00 | 0.00 | 59 | 1002.9 |
| 20260505214016 | 89 | 203 | 0.9 | 6.1 | 0.00 | 0.00 | 0.00 | 59 | 1002.9 |
| 20260505213016 | 89 | 270 | 0.9 | 7.0 | 0.00 | 0.00 | 0.00 | 59 | 1003.0 |
| 20260505212016 | 90 | 203 | 0.9 | 6.1 | 0.00 | 0.00 | 0.00 | 61 | 1003.1 |
| 20260505211016 | 90 | 225 | 2.6 | 9.6 | 0.00 | 0.00 | 0.00 | 60 | 1003.2 |
| 20260505210016 | 89 | 225 | 1.7 | 7.0 | 0.00 | 0.00 | 0.00 | 63 | 1003.2 |
| 20260505205016 | 88 | 225 | 2.6 | 10.4 | 0.00 | 0.00 | 0.00 | 64 | 1003.4 |
| 20260505204016 | 88 | 225 | 5.2 | 13.0 | 0.00 | 0.00 | 0.00 | 64 | 1003.5 |
| 20260505203016 | 88 | 248 | 2.6 | 13.0 | 0.00 | 0.00 | 0.00 | 64 | 1003.8 |
| 20260505202017 | 87 | 203 | 3.5 | 11.3 | 0.00 | 0.00 | 0.00 | 66 | 1003.7 |
| 20260505201016 | 87 | 225 | 4.3 | 9.6 | 0.00 | 0.00 | 0.00 | 67 | 1003.8 |
| 20260505200016 | 87 | 225 | 2.6 | 12.2 | 0.00 | 0.00 | 0.00 | 66 | 1003.8 |
| 20260505195016 | 87 | 225 | 2.6 | 9.6 | 0.00 | 0.00 | 0.00 | 67 | 1003.9 |
| 20260505194016 | 86 | 225 | 1.7 | 7.0 | 0.00 | 0.00 | 0.00 | 67 | 1004.0 |
| 20260505193016 | 85 | 248 | 2.6 | 10.4 | 0.00 | 0.00 | 0.00 | 68 | 1003.9 |
| 20260505192016 | 85 | 203 | 4.3 | 12.2 | 0.00 | 0.00 | 0.00 | 69 | 1004.0 |
| 20260505191016 | 84 | 225 | 5.2 | 13.9 | 0.00 | 0.00 | 0.00 | 69 | 1004.0 |
| 20260505190016 | 84 | 225 | 5.2 | 11.3 | 0.00 | 0.00 | 0.00 | 71 | 1004.1 |
| 20260505185016 | 83 | 203 | 4.3 | 11.3 | 0.00 | 0.00 | 0.00 | 71 | 1004.1 |
| 20260505184016 | 83 | 248 | 3.5 | 10.4 | 0.00 | 0.00 | 0.00 | 72 | 1004.2 |
| 20260505183016 | 83 | 225 | 3.5 | 11.3 | 0.00 | 0.00 | 0.00 | 72 | 1004.1 |
| 20260505182016 | 83 | 225 | 2.6 | 10.4 | 0.00 | 0.00 | 0.00 | 71 | 1004.1 |
| 20260505181016 | 83 | 225 | 3.5 | 9.6 | 0.00 | 0.00 | 0.00 | 72 | 1004.3 |
| 20260505180016 | 82 | 225 | 2.6 | 10.4 | 0.00 | 0.00 | 0.00 | 73 | 1004.2 |
| 20260505175016 | 82 | 225 | 3.5 | 8.7 | 0.00 | 0.00 | 0.00 | 73 | 1004.2 |
| 20260505174016 | 82 | 248 | 1.7 | 11.3 | 0.00 | 0.00 | 0.00 | 74 | 1004.2 |
| 20260505173019 | 81 | 225 | 2.6 | 12.2 | 0.00 | 0.00 | 0.00 | 75 | 1004.3 |
| 20260505172020 | 80 | 225 | 4.3 | 13.0 | 0.00 | 0.00 | 0.00 | 76 | 1004.4 |
| 20260505171016 | 79 | 225 | 3.5 | 9.6 | 0.00 | 0.00 | 0.00 | 76 | 1004.5 |
| 20260505170016 | 79 | 225 | 7.0 | 14.8 | 0.00 | 0.00 | 0.00 | 77 | 1004.3 |
| 20260505165016 | 79 | 225 | 6.1 | 13.0 | 0.00 | 0.00 | 0.00 | 76 | 1004.3 |
| 20260505164016 | 79 | 225 | 6.1 | 16.5 | 0.00 | 0.00 | 0.00 | 76 | 1004.2 |
| 20260505163016 | 79 | 225 | 4.3 | 13.0 | 0.00 | 0.00 | 0.00 | 77 | 1004.1 |
| 20260505162016 | 79 | 225 | 7.0 | 19.1 | 0.00 | 0.00 | 0.00 | 77 | 1004.2 |
| 20260505161016 | 78 | 225 | 5.2 | 17.4 | 0.00 | 0.00 | 0.00 | 77 | 1004.1 |
| 20260505153016 | 77 | 225 | 4.3 | 13.9 | 0.00 | 0.00 | 0.00 | 79 | 1003.9 |
| 20260505152016 | 77 | 225 | 5.2 | 14.8 | 0.00 | 0.00 | 0.00 | 79 | 1004.0 |
| 20260505151016 | 76 | 225 | 6.1 | 14.8 | 0.00 | 0.00 | 0.00 | 80 | 1004.2 |
| 20260505125016 | 72 | 203 | 3.5 | 13.9 | 0.00 | 0.00 | 0.00 | 86 | 1003.5 |
| 20260505124016 | 72 | 225 | 4.3 | 13.9 | 0.00 | 0.00 | 0.00 | 86 | 1003.8 |
| 20260505123016 | 72 | 225 | 4.3 | 12.2 | 0.00 | 0.00 | 0.00 | 86 | 1003.3 |
| 20260505122016 | 72 | 225 | 3.5 | 15.6 | 0.00 | 0.00 | 0.00 | 86 | 1003.2 |
| 20260505121016 | 72 | 225 | 3.5 | 13.0 | 0.00 | 0.00 | 0.00 | 86 | 1003.3 |
| 20260505120016 | 72 | 225 | 1.7 | 7.8 | 0.00 | 0.00 | 0.00 | 86 | 1003.2 |
| 20260505115016 | 72 | 225 | 3.5 | 11.3 | 0.00 | 0.00 | 0.00 | 86 | 1003.1 |
| 20260505114016 | 72 | 225 | 4.3 | 13.0 | 0.00 | 0.00 | 0.00 | 86 | 1003.0 |
| 20260505113016 | 72 | 225 | 4.3 | 16.5 | 0.00 | 0.00 | 0.00 | 86 | 1003.1 |
| 20260505112016 | 72 | 225 | 3.5 | 12.2 | 0.00 | 0.00 | 0.00 | 86 | 1003.0 |
| 20260505111016 | 72 | 225 | 3.5 | 11.3 | 0.00 | 0.00 | 0.00 | 85 | 1003.1 |
| 20260505102016 | 72 | 203 | 2.6 | 11.3 | 0.00 | 0.00 | 0.00 | 86 | 1003.2 |
| 20260505101017 | 72 | 225 | 4.3 | 15.6 | 0.00 | 0.00 | 0.00 | 85 | 1003.2 |
| 20260505100017 | 72 | 203 | 4.3 | 14.8 | 0.00 | 0.00 | 0.00 | 85 | 1003.2 |
| 20260505095016 | 72 | 225 | 2.6 | 12.2 | 0.00 | 0.00 | 0.00 | 86 | 1003.3 |
| 20260505094016 | 72 | 203 | 4.3 | 9.6 | 0.00 | 0.00 | 0.00 | 86 | 1003.2 |
| 20260505093016 | 71 | 225 | 4.3 | 10.4 | 0.00 | 0.00 | 0.00 | 86 | 1003.4 |
| 20260505092016 | 71 | 225 | 4.3 | 13.0 | 0.00 | 0.00 | 0.00 | 86 | 1003.5 |
| 20260505091016 | 71 | 225 | 4.3 | 13.0 | 0.00 | 0.00 | 0.00 | 86 | 1003.5 |
| 20260505090016 | 71 | 203 | 3.5 | 9.6 | 0.00 | 0.00 | 0.00 | 86 | 1003.5 |
| 20260505085016 | 71 | 225 | 4.3 | 14.8 | 0.00 | 0.00 | 0.00 | 86 | 1003.5 |
| 20260505084016 | 71 | 203 | 3.5 | 13.0 | 0.00 | 0.00 | 0.00 | 86 | 1003.6 |
| 20260505083016 | 71 | 203 | 1.7 | 11.3 | 0.00 | 0.00 | 0.00 | 86 | 1003.6 |
| 20260505082016 | 71 | 203 | 1.7 | 11.3 | 0.00 | 0.00 | 0.00 | 85 | 1003.6 |
| 20260505081016 | 71 | 225 | 1.7 | 10.4 | 0.00 | 0.00 | 0.00 | 85 | 1003.7 |
| 20260505080016 | 72 | 225 | 4.3 | 13.0 | 0.00 | 0.00 | 0.00 | 84 | 1003.7 |
| 20260505075016 | 72 | 203 | 4.3 | 11.3 | 0.00 | 0.00 | 0.00 | 84 | 1003.8 |
| 20260505074016 | 72 | 203 | 4.3 | 10.4 | 0.00 | 0.00 | 0.00 | 84 | 1004.0 |
| 20260505073016 | 72 | 225 | 4.3 | 12.2 | 0.00 | 0.00 | 0.00 | 83 | 1004.3 |
| 20260505072017 | 72 | 203 | 4.3 | 10.4 | 0.00 | 0.00 | 0.00 | 83 | 1004.4 |
| 20260505071016 | 73 | 225 | 5.2 | 11.3 | 0.00 | 0.00 | 0.00 | 82 | 1004.5 |
| 20260505070016 | 73 | 225 | 6.1 | 14.8 | 0.00 | 0.00 | 0.00 | 82 | 1004.7 |
| 20260505065016 | 73 | 225 | 5.2 | 16.5 | 0.00 | 0.00 | 0.00 | 81 | 1004.7 |
| 20260505064016 | 73 | 203 | 4.3 | 10.4 | 0.00 | 0.00 | 0.00 | 81 | 1004.9 |
| 20260505063016 | 73 | 203 | 3.5 | 11.3 | 0.00 | 0.00 | 0.00 | 81 | 1005.0 |
| 20260505062016 | 72 | 225 | 4.3 | 14.8 | 0.00 | 0.00 | 0.00 | 81 | 1004.9 |
| 20260505061016 | 72 | 203 | 4.3 | 11.3 | 0.00 | 0.00 | 0.00 | 80 | 1004.9 |
| 20260505060016 | 72 | 203 | 4.3 | 12.2 | 0.00 | 0.00 | 0.00 | 80 | 1004.8 |
| 20260505055018 | 73 | 180 | 2.6 | 8.7 | 0.00 | 0.00 | 0.00 | 80 | 1004.9 |
| 20260505054016 | 73 | 203 | 3.5 | 11.3 | 0.00 | 0.00 | 0.00 | 79 | 1005.0 |
| 20260505053016 | 73 | 203 | 1.7 | 11.3 | 0.00 | 0.00 | 0.00 | 79 | 1005.1 |
| 20260505052016 | 73 | 203 | 3.5 | 10.4 | 0.00 | 0.00 | 0.00 | 79 | 1005.1 |
| 20260505051016 | 73 | 225 | 3.5 | 11.3 | 0.00 | 0.00 | 0.00 | 78 | 1005.3 |
| 20260505041016 | 74 | 203 | 1.7 | 8.7 | 0.00 | 0.00 | 0.00 | 76 | 1005.5 |
| 20260505040016 | 74 | 203 | 0.9 | 6.1 | 0.00 | 0.00 | 0.00 | 75 | 1005.5 |
| 20260505035017 | 74 | 203 | 1.7 | 8.7 | 0.00 | 0.00 | 0.00 | 75 | 1005.4 |
| 20260505034016 | 74 | 203 | 2.6 | 9.6 | 0.00 | 0.00 | 0.00 | 75 | 1005.3 |
| 20260505033016 | 75 | 203 | 2.6 | 8.7 | 0.00 | 0.00 | 0.00 | 74 | 1005.4 |
| 20260505032016 | 75 | 180 | 0.9 | 7.0 | 0.00 | 0.00 | 0.00 | 74 | 1005.4 |
| 20260505031017 | 75 | 203 | 4.3 | 13.0 | 0.00 | 0.00 | 0.00 | 74 | 1005.3 |
| 20260505030016 | 75 | 203 | 2.6 | 10.4 | 0.00 | 0.00 | 0.00 | 74 | 1005.4 |
| 20260505025016 | 75 | 225 | 4.3 | 13.0 | 0.00 | 0.00 | 0.00 | 73 | 1005.5 |